createdAt,value
2018-03-12T00:02:04.433Z,4.10
2018-03-12T00:04:31.004Z,4.47
2018-03-12T00:06:57.584Z,4.40
2018-03-12T00:09:24.184Z,4.90
2018-03-12T00:11:50.758Z,4.30
2018-03-12T00:14:17.424Z,4.90
2018-03-12T00:16:44.081Z,4.80
2018-03-12T00:19:10.656Z,4.13
2018-03-12T00:21:37.231Z,4.60
2018-03-12T00:24:03.804Z,4.70
2018-03-12T00:26:30.396Z,5.00
2018-03-12T00:28:56.964Z,5.43
2018-03-12T00:31:23.545Z,4.90
2018-03-12T00:33:50.149Z,4.33
2018-03-12T00:36:16.725Z,4.20
2018-03-12T00:38:43.300Z,4.67
2018-03-12T00:41:09.872Z,4.53
2018-03-12T00:43:36.471Z,4.97
2018-03-12T00:46:03.053Z,4.63
2018-03-12T00:48:29.633Z,4.93
2018-03-12T00:50:56.209Z,5.20
2018-03-12T00:53:22.812Z,5.30
2018-03-12T00:55:49.384Z,4.73
2018-03-12T00:58:15.956Z,5.23
2018-03-12T01:00:42.544Z,5.90
2018-03-12T01:03:09.121Z,6.07
2018-03-12T01:05:35.692Z,5.27
2018-03-12T01:08:02.270Z,5.50
2018-03-12T01:10:28.850Z,5.83
2018-03-12T01:12:55.432Z,5.43
2018-03-12T01:15:22.013Z,6.10
2018-03-12T01:17:48.588Z,5.50
2018-03-12T01:20:15.155Z,5.43
2018-03-12T01:22:41.729Z,4.93
2018-03-12T01:25:08.304Z,5.20
2018-03-12T01:27:34.889Z,5.80
2018-03-12T01:30:01.468Z,5.60
2018-03-12T01:32:28.036Z,6.13
2018-03-12T01:34:54.617Z,6.07
2018-03-12T01:37:21.248Z,5.80
2018-03-12T01:39:47.772Z,6.07
2018-03-12T01:42:14.357Z,5.10
2018-03-12T01:44:40.970Z,5.73
2018-03-12T01:47:07.607Z,6.13
2018-03-12T01:49:34.133Z,6.30
2018-03-12T01:52:00.708Z,6.13
2018-03-12T01:54:27.296Z,6.03
2018-03-12T01:56:53.860Z,5.60
2018-03-12T01:59:20.439Z,5.60
2018-03-12T02:01:47.019Z,5.60
2018-03-12T02:04:13.605Z,6.13
2018-03-12T02:06:40.188Z,5.60
2018-03-12T02:09:06.756Z,5.47
2018-03-12T02:11:33.459Z,5.87
2018-03-12T02:14:00.037Z,5.60
2018-03-12T02:16:26.627Z,5.77
2018-03-12T02:18:53.196Z,5.67
2018-03-12T02:21:19.779Z,5.20
2018-03-12T02:23:46.347Z,5.73
2018-03-12T02:26:12.921Z,5.10
2018-03-12T02:28:39.529Z,5.37
2018-03-12T02:31:06.099Z,5.43
2018-03-12T02:33:32.677Z,5.53
2018-03-12T02:35:59.259Z,5.80
2018-03-12T02:38:25.829Z,5.53
2018-03-12T02:40:52.423Z,5.40
2018-03-12T02:43:19.011Z,4.87
2018-03-12T02:45:45.580Z,5.23
2018-03-12T02:48:12.157Z,5.20
2018-03-12T02:50:38.737Z,5.30
2018-03-12T02:53:05.337Z,4.97
2018-03-12T02:55:31.908Z,4.80
2018-03-12T02:57:58.478Z,4.40
2018-03-12T03:00:25.060Z,4.90
2018-03-12T03:02:51.803Z,5.20
2018-03-12T03:05:18.409Z,4.90
2018-03-12T03:07:45.012Z,4.93
2018-03-12T03:10:11.603Z,5.20
2018-03-12T03:12:38.195Z,4.80
2018-03-12T03:15:04.787Z,4.90
2018-03-12T03:17:31.381Z,4.50
2018-03-12T03:19:57.962Z,5.30
2018-03-12T03:22:24.548Z,4.50
2018-03-12T03:24:51.252Z,4.73
2018-03-12T03:27:17.845Z,4.80
2018-03-12T03:29:44.427Z,5.07
2018-03-12T03:32:11.228Z,5.47
2018-03-12T03:34:37.839Z,5.47
2018-03-12T03:37:04.435Z,5.80
2018-03-12T03:39:31.022Z,5.30
2018-03-12T03:41:57.601Z,5.17
2018-03-12T03:44:24.202Z,5.40
2018-03-12T03:46:50.787Z,5.10
2018-03-12T03:49:17.392Z,5.37
2018-03-12T03:51:43.979Z,4.90
2018-03-12T03:54:10.647Z,5.33
2018-03-12T03:56:37.222Z,4.83
2018-03-12T03:59:03.818Z,5.67
2018-03-12T04:01:30.418Z,5.13
2018-03-12T04:03:57.015Z,5.20
2018-03-12T04:06:23.599Z,5.13
2018-03-12T04:08:51.053Z,6.10
2018-03-12T04:11:17.647Z,5.63
2018-03-12T04:13:44.380Z,5.37
2018-03-12T04:16:10.954Z,5.43
2018-03-12T04:18:37.539Z,5.70
2018-03-12T04:21:04.134Z,4.73
2018-03-12T04:23:30.762Z,5.27
2018-03-12T04:25:57.376Z,5.40
2018-03-12T04:28:23.959Z,5.13
2018-03-12T04:30:50.575Z,4.80
2018-03-12T04:33:17.156Z,5.20
2018-03-12T04:35:43.743Z,5.00
2018-03-12T04:38:10.342Z,4.97
2018-03-12T04:40:36.932Z,4.50
2018-03-12T04:43:03.517Z,4.77
2018-03-12T04:45:30.107Z,4.77
2018-03-12T04:47:56.709Z,4.90
2018-03-12T04:50:23.321Z,5.00
2018-03-12T04:52:49.902Z,5.03
2018-03-12T04:55:16.487Z,4.57
2018-03-12T04:57:43.090Z,5.70
2018-03-12T05:00:09.678Z,5.50
2018-03-12T05:02:36.378Z,4.90
2018-03-12T05:05:02.975Z,4.60
2018-03-12T05:07:29.597Z,4.33
2018-03-12T05:09:56.212Z,5.20
2018-03-12T05:12:22.815Z,5.30
2018-03-12T05:14:49.425Z,5.10
2018-03-12T05:17:16.009Z,5.00
2018-03-12T05:19:42.602Z,5.03
2018-03-12T05:22:09.195Z,4.67
2018-03-12T05:24:35.778Z,4.73
2018-03-12T05:27:02.384Z,4.83
2018-03-12T05:29:28.974Z,5.20
2018-03-12T05:31:55.555Z,4.80
2018-03-12T05:34:22.154Z,4.90
2018-03-12T05:36:48.739Z,5.20
2018-03-12T05:39:15.330Z,4.90
2018-03-12T05:41:41.914Z,4.57
2018-03-12T05:44:08.506Z,5.07
2018-03-12T05:46:35.135Z,4.60
2018-03-12T05:49:01.724Z,4.90
2018-03-12T05:51:28.323Z,5.30
2018-03-12T05:53:54.902Z,5.30
2018-03-12T05:56:21.490Z,6.20
2018-03-12T05:58:48.083Z,5.87
2018-03-12T06:01:14.667Z,6.57
2018-03-12T06:03:41.276Z,6.73
2018-03-12T06:06:07.858Z,7.80
2018-03-12T06:08:34.448Z,7.50
2018-03-12T06:11:01.055Z,7.87
2018-03-12T06:13:27.631Z,7.77
2018-03-12T06:15:54.235Z,7.23
2018-03-12T06:18:20.822Z,7.87
2018-03-12T06:20:47.414Z,7.17
2018-03-12T06:23:14.047Z,7.50
2018-03-12T06:25:40.655Z,6.73
2018-03-12T06:28:07.271Z,7.27
2018-03-12T06:30:33.875Z,8.23
2018-03-12T06:33:00.467Z,7.80
2018-03-12T06:35:27.058Z,7.33
2018-03-12T06:37:53.668Z,7.83
2018-03-12T06:40:20.251Z,7.90
2018-03-12T06:42:46.838Z,7.50
2018-03-12T06:45:13.439Z,7.93
2018-03-12T06:47:40.049Z,8.33
2018-03-12T06:50:06.660Z,8.50
2018-03-12T06:52:33.252Z,8.40
2018-03-12T06:55:00.782Z,8.80
2018-03-12T06:57:27.489Z,8.60
2018-03-12T06:59:54.078Z,7.93
2018-03-12T07:02:20.682Z,8.33
2018-03-12T07:04:47.267Z,8.60
2018-03-12T07:07:13.863Z,8.70
2018-03-12T07:09:40.475Z,8.97
2018-03-12T07:12:07.063Z,8.50
2018-03-12T07:14:33.663Z,8.00
2018-03-12T07:17:00.257Z,8.43
2018-03-12T07:19:26.871Z,8.80
2018-03-12T07:21:53.471Z,8.60
2018-03-12T07:24:20.060Z,8.10
2018-03-12T07:26:46.667Z,8.70
2018-03-12T07:29:13.256Z,9.27
2018-03-12T07:31:39.862Z,8.60
2018-03-12T07:34:06.454Z,8.87
2018-03-12T07:36:34.540Z,8.13
2018-03-12T07:39:01.136Z,9.80
2018-03-12T07:41:27.752Z,9.10
2018-03-12T07:43:54.354Z,9.13
2018-03-12T07:46:20.935Z,9.00
2018-03-12T07:48:47.563Z,9.40
2018-03-12T07:51:14.146Z,9.80
2018-03-12T07:53:40.771Z,10.10
2018-03-12T07:56:07.359Z,8.87
2018-03-12T07:58:34.003Z,8.37
2018-03-12T08:01:00.610Z,9.50
2018-03-12T08:03:27.203Z,8.47
2018-03-12T08:05:53.823Z,9.90
2018-03-12T08:08:20.983Z,9.60
2018-03-12T08:10:47.591Z,10.13
2018-03-12T08:13:14.187Z,9.50
2018-03-12T08:15:40.792Z,10.47
2018-03-12T08:18:07.396Z,10.13
2018-03-12T08:20:34.043Z,9.10
2018-03-12T08:23:00.656Z,8.97
2018-03-12T08:25:27.278Z,9.47
2018-03-12T08:27:53.902Z,10.57
2018-03-12T08:30:20.491Z,9.60
2018-03-12T08:32:47.094Z,10.00
2018-03-12T08:35:13.687Z,9.50
2018-03-12T08:37:40.275Z,10.37
2018-03-12T08:40:06.878Z,9.87
2018-03-12T08:42:33.480Z,9.87
2018-03-12T08:45:00.125Z,9.60
2018-03-12T08:47:26.716Z,10.40
2018-03-12T08:49:53.303Z,9.40
2018-03-12T08:52:19.906Z,9.43
2018-03-12T08:54:46.496Z,9.13
2018-03-12T08:57:13.092Z,9.93
2018-03-12T08:59:39.688Z,10.10
2018-03-12T09:02:06.295Z,10.83
2018-03-12T09:04:33.010Z,11.60
2018-03-12T09:06:59.615Z,11.83
2018-03-12T09:09:26.217Z,11.90
2018-03-12T09:11:52.812Z,11.87
2018-03-12T09:14:19.414Z,11.67
2018-03-12T09:16:46.002Z,11.13
2018-03-12T09:19:12.623Z,10.20
2018-03-12T09:21:39.224Z,9.33
2018-03-12T09:24:05.810Z,10.10
2018-03-12T09:26:32.414Z,9.80
2018-03-12T09:28:59.016Z,8.63
2018-03-12T09:31:25.614Z,9.50
2018-03-12T09:33:52.206Z,9.07
2018-03-12T09:36:18.852Z,9.80
2018-03-12T09:38:45.444Z,8.93
2018-03-12T09:41:12.031Z,9.47
2018-03-12T09:43:38.619Z,8.57
2018-03-12T09:46:05.210Z,8.63
2018-03-12T09:48:31.814Z,8.23
2018-03-12T09:50:58.404Z,7.33
2018-03-12T09:53:25.011Z,8.27
2018-03-12T09:55:51.668Z,7.80
2018-03-12T09:58:18.254Z,7.50
2018-03-12T10:00:44.851Z,6.47
2018-03-12T10:03:11.439Z,6.50
2018-03-12T10:05:38.027Z,6.10
2018-03-12T10:08:04.627Z,5.17
2018-03-12T10:10:31.228Z,6.00
2018-03-12T10:12:57.863Z,5.83
2018-03-12T10:15:24.447Z,5.47
2018-03-12T10:17:51.043Z,5.60
2018-03-12T10:20:17.626Z,4.67
2018-03-12T10:22:44.219Z,5.00
2018-03-12T10:25:10.807Z,4.73
2018-03-12T10:27:37.488Z,4.90
2018-03-12T10:30:04.067Z,5.40
2018-03-12T10:32:30.643Z,4.90
2018-03-12T10:34:57.244Z,4.63
2018-03-12T10:37:23.829Z,4.80
2018-03-12T10:39:50.433Z,4.83
2018-03-12T10:42:17.019Z,4.90
2018-03-12T10:44:43.635Z,4.70
2018-03-12T10:47:10.212Z,5.13
2018-03-12T10:49:36.803Z,4.87
2018-03-12T10:52:03.407Z,4.77
2018-03-12T10:54:29.994Z,4.40
2018-03-12T10:56:56.590Z,4.53
2018-03-12T10:59:23.180Z,4.47
2018-03-12T11:01:55.596Z,4.43
2018-03-12T11:04:22.187Z,4.70
2018-03-12T11:06:54.482Z,3.80
2018-03-12T11:09:21.091Z,3.90
2018-03-12T11:11:47.687Z,3.83
2018-03-12T11:14:14.280Z,4.30
2018-03-12T11:16:40.866Z,3.80
2018-03-12T11:19:07.464Z,3.50
2018-03-12T11:21:34.047Z,3.60
2018-03-12T11:24:00.651Z,3.77
2018-03-12T11:26:30.836Z,2.93
2018-03-12T11:29:04.539Z,2.33
2018-03-12T11:31:31.175Z,2.10
2018-03-12T11:33:57.719Z,2.10
2018-03-12T11:36:24.310Z,1.93
2018-03-12T11:38:50.912Z,2.03
2018-03-12T11:41:17.503Z,1.90
2018-03-12T11:43:44.094Z,1.73
2018-03-12T11:46:10.725Z,1.80
2018-03-12T11:48:37.289Z,1.80
2018-03-12T11:51:03.932Z,1.50
2018-03-12T11:53:30.502Z,1.67
2018-03-12T11:55:57.088Z,1.60
2018-03-12T11:58:23.679Z,1.20
2018-03-12T12:00:50.271Z,1.20
2018-03-12T12:03:16.859Z,1.17
2018-03-12T12:05:43.451Z,1.30
2018-03-12T12:08:10.061Z,1.10
2018-03-12T12:10:36.642Z,0.90
2018-03-12T12:13:03.239Z,1.37
2018-03-12T12:15:29.840Z,1.10
2018-03-12T12:17:56.428Z,1.30
2018-03-12T12:20:23.022Z,1.30
2018-03-12T12:22:49.619Z,1.33
2018-03-12T12:25:16.198Z,1.27
2018-03-12T12:27:42.806Z,1.30
2018-03-12T12:30:09.389Z,1.10
2018-03-12T12:32:35.990Z,1.30
2018-03-12T12:35:02.575Z,1.07
2018-03-12T12:37:29.188Z,1.60
2018-03-12T12:39:55.784Z,1.40
2018-03-12T12:42:22.368Z,1.10
2018-03-12T12:44:48.954Z,1.00
2018-03-12T12:47:15.542Z,1.50
2018-03-12T12:49:42.150Z,1.00
2018-03-12T12:52:08.754Z,1.10
2018-03-12T12:54:35.361Z,1.27
2018-03-12T12:57:01.955Z,1.07
2018-03-12T12:59:28.543Z,1.33
2018-03-12T13:01:55.130Z,0.90
2018-03-12T13:04:21.729Z,1.33
2018-03-12T13:06:48.311Z,1.27
2018-03-12T13:09:14.903Z,0.97
2018-03-12T13:11:41.488Z,1.03
2018-03-12T13:14:08.098Z,1.00
2018-03-12T13:16:34.682Z,1.20
2018-03-12T13:19:01.268Z,1.00
2018-03-12T13:21:27.859Z,0.97
2018-03-12T13:23:54.451Z,1.10
2018-03-12T13:26:21.057Z,1.00
2018-03-12T13:28:47.639Z,1.00
2018-03-12T13:31:14.248Z,1.00
2018-03-12T13:33:40.819Z,1.03
2018-03-12T13:36:07.426Z,0.83
2018-03-12T13:38:34.015Z,0.90
2018-03-12T13:41:00.600Z,0.97
2018-03-12T13:43:27.188Z,0.70
2018-03-12T13:45:53.779Z,0.80
2018-03-12T13:48:20.419Z,0.83
2018-03-12T13:50:47.017Z,0.70
2018-03-12T13:53:13.600Z,0.80
2018-03-12T13:55:40.197Z,1.03
2018-03-12T13:58:06.792Z,0.90
2018-03-12T14:00:33.374Z,0.80
2018-03-12T14:02:59.962Z,0.80
2018-03-12T14:05:26.559Z,1.00
2018-03-12T14:07:53.146Z,1.10
2018-03-12T14:10:19.766Z,0.90
2018-03-12T14:12:46.353Z,0.80
2018-03-12T14:15:12.947Z,1.10
2018-03-12T14:17:39.546Z,0.87
2018-03-12T14:20:06.133Z,1.00
2018-03-12T14:22:32.726Z,1.20
2018-03-12T14:24:59.306Z,0.90
2018-03-12T14:27:25.939Z,0.80
2018-03-12T14:29:52.507Z,0.97
2018-03-12T14:32:19.111Z,2.10
2018-03-12T14:34:45.698Z,1.20
2018-03-12T14:37:12.285Z,1.37
2018-03-12T14:39:38.880Z,1.00
2018-03-12T14:42:05.471Z,1.00
2018-03-12T14:44:32.075Z,1.10
2018-03-12T14:46:58.680Z,1.00
2018-03-12T14:49:25.253Z,1.00
2018-03-12T14:51:51.847Z,1.20
2018-03-12T14:54:18.460Z,0.90
2018-03-12T14:56:45.067Z,1.00
2018-03-12T14:59:11.656Z,1.20
2018-03-12T15:01:38.240Z,1.00
2018-03-12T15:04:04.830Z,1.00
2018-03-12T15:06:31.414Z,1.07
2018-03-12T15:08:58.079Z,0.90
2018-03-12T15:11:24.656Z,1.20
2018-03-12T15:13:51.239Z,0.80
2018-03-12T15:16:17.856Z,0.90
2018-03-12T15:18:44.461Z,1.00
2018-03-12T15:21:11.052Z,0.80
2018-03-12T15:23:37.661Z,0.97
2018-03-12T15:26:04.243Z,1.10
2018-03-12T15:28:30.837Z,0.83
2018-03-12T15:30:57.428Z,0.80
2018-03-12T15:33:24.110Z,0.70
2018-03-12T15:35:50.679Z,0.73
2018-03-12T15:38:17.304Z,0.70
2018-03-12T15:40:43.915Z,0.70
2018-03-12T15:43:10.529Z,0.63
2018-03-12T15:45:37.126Z,0.80
2018-03-12T15:48:03.707Z,0.60
2018-03-12T15:50:30.308Z,0.77
2018-03-12T15:52:56.906Z,0.60
2018-03-12T15:55:23.495Z,0.77
2018-03-12T15:57:53.102Z,0.60
2018-03-12T16:00:20.582Z,0.60
2018-03-12T16:02:47.176Z,0.67
2018-03-12T16:05:13.783Z,0.70
2018-03-12T16:07:40.365Z,0.60
2018-03-12T16:10:07.036Z,0.80
2018-03-12T16:12:33.632Z,0.73
2018-03-12T16:15:00.223Z,1.30
2018-03-12T16:17:26.822Z,1.93
2018-03-12T16:19:53.410Z,1.80
2018-03-12T16:22:20.052Z,2.27
2018-03-12T16:24:46.659Z,2.10
2018-03-12T16:27:13.227Z,2.17
2018-03-12T16:29:39.822Z,2.07
2018-03-12T16:32:06.443Z,2.00
2018-03-12T16:34:33.022Z,1.40
2018-03-12T16:36:59.611Z,1.40
2018-03-12T16:39:26.195Z,1.20
2018-03-12T16:41:52.792Z,1.30
2018-03-12T16:44:19.387Z,1.07
2018-03-12T16:46:45.981Z,1.33
2018-03-12T16:49:12.559Z,1.20
2018-03-12T16:51:39.171Z,1.10
2018-03-12T16:54:05.762Z,1.27
2018-03-12T16:56:32.347Z,1.13
2018-03-12T16:58:58.939Z,1.30
2018-03-12T17:01:25.526Z,1.30
2018-03-12T17:03:52.131Z,1.00
2018-03-12T17:06:18.713Z,1.10
2018-03-12T17:08:45.346Z,1.70
2018-03-12T17:11:11.920Z,0.90
2018-03-12T17:13:38.507Z,1.10
2018-03-12T17:16:05.106Z,1.00
2018-03-12T17:18:31.695Z,1.10
2018-03-12T17:20:58.298Z,1.10
2018-03-12T17:23:24.875Z,1.00
2018-03-12T17:25:51.504Z,0.90
2018-03-12T17:28:18.337Z,0.80
2018-03-12T17:30:44.864Z,1.20
2018-03-12T17:33:11.459Z,1.00
2018-03-12T17:35:38.046Z,1.10
2018-03-12T17:38:04.638Z,1.10
2018-03-12T17:40:31.227Z,0.90
2018-03-12T17:42:57.827Z,1.17
2018-03-12T17:45:24.415Z,1.00
2018-03-12T17:47:51.011Z,0.93
2018-03-12T17:50:17.611Z,1.00
2018-03-12T17:52:44.237Z,0.80
2018-03-12T17:55:10.791Z,0.70
2018-03-12T17:57:37.403Z,0.73
2018-03-12T18:00:04.004Z,0.80
2018-03-12T18:02:30.674Z,0.80
2018-03-12T18:04:57.251Z,0.60
2018-03-12T18:07:23.848Z,0.70
2018-03-12T18:09:50.428Z,0.70
2018-03-12T18:12:17.056Z,0.70
2018-03-12T18:14:43.641Z,0.80
2018-03-12T18:17:10.247Z,0.70
2018-03-12T18:19:36.831Z,0.77
2018-03-12T18:22:03.433Z,0.60
2018-03-12T18:24:30.031Z,1.00
2018-03-12T18:26:56.616Z,0.90
2018-03-12T18:29:23.232Z,0.90
2018-03-12T18:31:49.804Z,1.13
2018-03-12T18:34:16.404Z,1.10
2018-03-12T18:36:43.040Z,1.20
2018-03-12T18:39:09.687Z,0.90
2018-03-12T18:41:36.210Z,1.07
2018-03-12T18:44:02.795Z,1.10
2018-03-12T18:46:29.406Z,1.20
2018-03-12T18:48:56.011Z,1.20
2018-03-12T18:51:22.606Z,1.53
2018-03-12T18:53:49.192Z,1.27
2018-03-12T18:56:15.792Z,1.00
2018-03-12T18:58:42.367Z,1.40
2018-03-12T19:01:08.963Z,1.03
2018-03-12T19:03:35.630Z,1.27
2018-03-12T19:06:02.215Z,1.60
2018-03-12T19:08:28.830Z,3.00
2018-03-12T19:10:55.414Z,2.17
2018-03-12T19:13:22.009Z,2.90
2018-03-12T19:15:48.594Z,2.50
2018-03-12T19:18:15.183Z,1.63
2018-03-12T19:20:41.778Z,1.77
2018-03-12T19:23:08.367Z,1.50
2018-03-12T19:25:35.025Z,1.33
2018-03-12T19:28:01.602Z,1.10
2018-03-12T19:30:28.203Z,1.00
2018-03-12T19:32:54.808Z,1.10
2018-03-12T19:35:21.383Z,1.10
2018-03-12T19:37:47.968Z,1.07
2018-03-12T19:40:14.563Z,1.30
2018-03-12T19:42:41.155Z,1.20
2018-03-12T19:45:07.751Z,1.20
2018-03-12T19:47:34.343Z,1.70
2018-03-12T19:50:00.931Z,1.30
2018-03-12T19:52:27.527Z,1.30
2018-03-12T19:54:54.109Z,1.30
2018-03-12T19:57:20.706Z,1.90
2018-03-12T19:59:47.284Z,1.93
2018-03-12T20:02:13.883Z,1.40
2018-03-12T20:04:40.470Z,1.43
2018-03-12T20:07:07.071Z,1.60
2018-03-12T20:09:39.468Z,1.30
2018-03-12T20:12:06.064Z,1.27
2018-03-12T20:14:32.658Z,1.50
2018-03-12T20:16:59.256Z,1.67
2018-03-12T20:19:25.844Z,1.40
2018-03-12T20:21:52.446Z,1.33
2018-03-12T20:24:19.038Z,1.70
2018-03-12T20:26:45.623Z,1.50
2018-03-12T20:29:12.214Z,1.30
2018-03-12T20:31:38.795Z,1.00
2018-03-12T20:34:05.399Z,1.30
2018-03-12T20:36:31.982Z,1.20
2018-03-12T20:38:58.579Z,1.20
2018-03-12T20:41:25.171Z,1.40
2018-03-12T20:43:51.767Z,1.33
2018-03-12T20:46:18.360Z,1.20
2018-03-12T20:48:44.959Z,0.90
2018-03-12T20:51:11.546Z,1.00
2018-03-12T20:53:38.131Z,1.00
2018-03-12T20:56:04.723Z,0.90
2018-03-12T20:58:31.308Z,1.00
2018-03-12T21:00:57.958Z,0.80
2018-03-12T21:03:24.514Z,0.90
2018-03-12T21:05:51.121Z,1.00
2018-03-12T21:08:17.941Z,1.07
2018-03-12T21:10:44.542Z,1.10
2018-03-12T21:13:11.134Z,1.20
2018-03-12T21:15:37.723Z,1.20
2018-03-12T21:18:04.320Z,1.27
2018-03-12T21:20:30.911Z,1.50
2018-03-12T21:22:57.533Z,1.10
2018-03-12T21:25:24.094Z,1.57
2018-03-12T21:27:50.707Z,1.50
2018-03-12T21:30:17.300Z,1.13
2018-03-12T21:32:43.883Z,1.37
2018-03-12T21:35:10.483Z,1.30
2018-03-12T21:37:37.079Z,1.30
2018-03-12T21:40:03.677Z,1.30
2018-03-12T21:42:30.254Z,1.50
2018-03-12T21:44:56.850Z,1.50
2018-03-12T21:47:23.443Z,1.20
2018-03-12T21:49:50.032Z,1.20
2018-03-12T21:52:16.614Z,1.20
2018-03-12T21:54:43.293Z,1.10
2018-03-12T21:57:09.923Z,0.87
2018-03-12T21:59:36.460Z,0.67
2018-03-12T22:02:03.052Z,0.70
2018-03-12T22:04:29.635Z,0.60
2018-03-12T22:06:56.289Z,0.70
2018-03-12T22:09:22.823Z,0.70
2018-03-12T22:11:49.427Z,0.70
2018-03-12T22:14:16.007Z,0.70
2018-03-12T22:16:42.599Z,0.60
2018-03-12T22:19:09.184Z,0.70
2018-03-12T22:21:35.787Z,0.80
2018-03-12T22:24:02.380Z,0.80
2018-03-12T22:26:28.963Z,0.70
2018-03-12T22:28:55.566Z,0.60
2018-03-12T22:31:22.155Z,0.67
2018-03-12T22:33:48.809Z,0.80
2018-03-12T22:36:15.399Z,0.70
2018-03-12T22:38:41.998Z,0.70
2018-03-12T22:41:08.599Z,0.70
2018-03-12T22:43:35.223Z,0.80
2018-03-12T22:46:01.815Z,0.80
2018-03-12T22:48:28.412Z,0.80
2018-03-12T22:50:55.003Z,0.90
2018-03-12T22:53:21.587Z,0.70
2018-03-12T22:55:48.175Z,0.70
2018-03-12T22:58:14.767Z,0.80
2018-03-12T23:00:41.363Z,0.77
2018-03-12T23:03:07.952Z,0.90
2018-03-12T23:05:34.620Z,0.80
2018-03-12T23:08:01.186Z,0.80
2018-03-12T23:10:27.812Z,0.90
2018-03-12T23:12:54.402Z,0.77
2018-03-12T23:15:20.998Z,0.80
2018-03-12T23:17:47.590Z,0.80
2018-03-12T23:20:14.178Z,0.90
2018-03-12T23:22:40.763Z,1.03
2018-03-12T23:25:07.356Z,0.80
2018-03-12T23:27:33.951Z,1.10
2018-03-12T23:30:00.610Z,0.90
2018-03-12T23:32:27.200Z,1.07
2018-03-12T23:34:53.789Z,0.80
2018-03-12T23:37:20.407Z,1.00
2018-03-12T23:39:46.991Z,1.23
2018-03-12T23:42:13.603Z,0.93
2018-03-12T23:44:40.206Z,1.03
2018-03-12T23:47:06.826Z,0.77
2018-03-12T23:49:33.419Z,0.87
2018-03-12T23:52:00.011Z,1.00
2018-03-12T23:54:30.358Z,1.00
2018-03-12T23:56:56.935Z,1.13
2018-03-12T23:59:23.536Z,1.20
